sensor_id;sensor_type;location;lat;lon;timestamp;temperature;humidity
5041;DHT22;2539;52.568;13.364;2024-01-11T00:01:48;-6.60;99.90
5041;DHT22;2539;52.568;13.364;2024-01-11T00:04:14;-6.50;99.90
5041;DHT22;2539;52.568;13.364;2024-01-11T00:06:45;-6.50;99.90
5041;DHT22;2539;52.568;13.364;2024-01-11T00:09:11;-6.50;99.90
5041;DHT22;2539;52.568;13.364;2024-01-11T00:11:37;-6.50;99.90
5041;DHT22;2539;52.568;13.364;2024-01-11T00:14:04;-6.50;99.90
5041;DHT22;2539;52.568;13.364;2024-01-11T00:16:30;-6.50;99.90
5041;DHT22;2539;52.568;13.364;2024-01-11T00:18:56;-6.40;99.90
5041;DHT22;2539;52.568;13.364;2024-01-11T00:21:23;-6.40;99.90
5041;DHT22;2539;52.568;13.364;2024-01-11T00:23:49;-6.30;99.90
5041;DHT22;2539;52.568;13.364;2024-01-11T00:26:16;-6.40;99.90
5041;DHT22;2539;52.568;13.364;2024-01-11T00:28:42;-6.40;99.90
5041;DHT22;2539;52.568;13.364;2024-01-11T00:31:08;-6.30;99.90
5041;DHT22;2539;52.568;13.364;2024-01-11T00:33:35;-6.30;99.90
5041;DHT22;2539;52.568;13.364;2024-01-11T00:36:01;-6.20;99.90
5041;DHT22;2539;52.568;13.364;2024-01-11T00:38:28;-6.20;99.90
5041;DHT22;2539;52.568;13.364;2024-01-11T00:40:54;-6.10;99.90
5041;DHT22;2539;52.568;13.364;2024-01-11T00:43:21;-6.20;99.90
5041;DHT22;2539;52.568;13.364;2024-01-11T00:45:48;-6.10;99.90
5041;DHT22;2539;52.568;13.364;2024-01-11T00:48:14;-6.10;99.90
5041;DHT22;2539;52.568;13.364;2024-01-11T00:50:40;-6.00;99.90
5041;DHT22;2539;52.568;13.364;2024-01-11T00:53:06;-6.30;99.90
5041;DHT22;2539;52.568;13.364;2024-01-11T00:55:33;-6.20;99.90
5041;DHT22;2539;52.568;13.364;2024-01-11T00:57:59;-6.30;99.90
5041;DHT22;2539;52.568;13.364;2024-01-11T01:00:25;-6.20;99.90
5041;DHT22;2539;52.568;13.364;2024-01-11T01:02:50;-6.20;99.90
5041;DHT22;2539;52.568;13.364;2024-01-11T01:05:17;-6.10;99.90
5041;DHT22;2539;52.568;13.364;2024-01-11T01:07:43;-6.10;99.90
5041;DHT22;2539;52.568;13.364;2024-01-11T01:10:13;-6.10;99.90
5041;DHT22;2539;52.568;13.364;2024-01-11T01:12:39;-6.10;99.90
5041;DHT22;2539;52.568;13.364;2024-01-11T01:15:08;-6.00;99.90
5041;DHT22;2539;52.568;13.364;2024-01-11T01:17:34;-6.00;99.90
5041;DHT22;2539;52.568;13.364;2024-01-11T01:20:01;-6.00;99.90
5041;DHT22;2539;52.568;13.364;2024-01-11T01:22:27;-5.90;99.90
5041;DHT22;2539;52.568;13.364;2024-01-11T01:24:54;-5.90;99.90
5041;DHT22;2539;52.568;13.364;2024-01-11T01:27:20;-5.90;99.90
5041;DHT22;2539;52.568;13.364;2024-01-11T01:29:46;-5.90;99.90
5041;DHT22;2539;52.568;13.364;2024-01-11T01:32:13;-5.90;99.90
5041;DHT22;2539;52.568;13.364;2024-01-11T01:34:39;-5.90;99.90
5041;DHT22;2539;52.568;13.364;2024-01-11T01:37:05;-5.80;99.90
5041;DHT22;2539;52.568;13.364;2024-01-11T01:39:32;-5.90;99.90
5041;DHT22;2539;52.568;13.364;2024-01-11T01:41:58;-5.90;99.90
5041;DHT22;2539;52.568;13.364;2024-01-11T01:44:25;-5.90;99.90
5041;DHT22;2539;52.568;13.364;2024-01-11T01:46:51;-5.90;99.90
5041;DHT22;2539;52.568;13.364;2024-01-11T01:49:18;-5.80;99.90
5041;DHT22;2539;52.568;13.364;2024-01-11T01:51:49;-5.80;99.90
5041;DHT22;2539;52.568;13.364;2024-01-11T01:54:16;-5.80;99.90
5041;DHT22;2539;52.568;13.364;2024-01-11T01:56:42;-5.80;99.90
5041;DHT22;2539;52.568;13.364;2024-01-11T01:59:09;-5.90;99.90
5041;DHT22;2539;52.568;13.364;2024-01-11T02:01:36;-5.80;99.90
5041;DHT22;2539;52.568;13.364;2024-01-11T02:04:02;-5.80;99.90
5041;DHT22;2539;52.568;13.364;2024-01-11T02:06:30;-5.80;99.90
5041;DHT22;2539;52.568;13.364;2024-01-11T02:08:59;-5.70;99.90
5041;DHT22;2539;52.568;13.364;2024-01-11T02:11:26;-5.60;99.90
5041;DHT22;2539;52.568;13.364;2024-01-11T02:13:53;-5.50;99.90
5041;DHT22;2539;52.568;13.364;2024-01-11T02:16:19;-5.70;99.90
5041;DHT22;2539;52.568;13.364;2024-01-11T02:18:46;-5.80;99.90
5041;DHT22;2539;52.568;13.364;2024-01-11T02:21:14;-5.80;99.90
5041;DHT22;2539;52.568;13.364;2024-01-11T02:23:44;-5.80;99.90
5041;DHT22;2539;52.568;13.364;2024-01-11T02:26:15;-5.80;99.90
5041;DHT22;2539;52.568;13.364;2024-01-11T02:28:45;-5.70;99.90
5041;DHT22;2539;52.568;13.364;2024-01-11T02:31:14;-5.80;99.90
5041;DHT22;2539;52.568;13.364;2024-01-11T02:33:41;-5.70;99.90
5041;DHT22;2539;52.568;13.364;2024-01-11T02:36:08;-5.70;99.90
5041;DHT22;2539;52.568;13.364;2024-01-11T02:38:34;-5.70;99.90
5041;DHT22;2539;52.568;13.364;2024-01-11T02:41:00;-5.70;99.90
5041;DHT22;2539;52.568;13.364;2024-01-11T02:43:26;-5.60;99.90
5041;DHT22;2539;52.568;13.364;2024-01-11T02:45:55;-5.50;99.90
5041;DHT22;2539;52.568;13.364;2024-01-11T02:48:21;-5.50;99.90
5041;DHT22;2539;52.568;13.364;2024-01-11T02:50:48;-5.60;99.90
5041;DHT22;2539;52.568;13.364;2024-01-11T02:53:15;-5.60;99.90
5041;DHT22;2539;52.568;13.364;2024-01-11T02:55:41;-5.60;99.90
5041;DHT22;2539;52.568;13.364;2024-01-11T02:58:07;-5.60;99.90
5041;DHT22;2539;52.568;13.364;2024-01-11T03:00:34;-5.50;99.90
5041;DHT22;2539;52.568;13.364;2024-01-11T03:03:00;-5.40;99.90
5041;DHT22;2539;52.568;13.364;2024-01-11T03:05:26;-5.30;99.90
5041;DHT22;2539;52.568;13.364;2024-01-11T03:07:53;-5.60;99.90
5041;DHT22;2539;52.568;13.364;2024-01-11T03:10:19;-5.50;99.90
5041;DHT22;2539;52.568;13.364;2024-01-11T03:12:45;-5.40;99.90
5041;DHT22;2539;52.568;13.364;2024-01-11T03:15:12;-5.30;99.90
5041;DHT22;2539;52.568;13.364;2024-01-11T03:17:39;-5.30;99.90
5041;DHT22;2539;52.568;13.364;2024-01-11T03:20:05;-5.30;99.90
5041;DHT22;2539;52.568;13.364;2024-01-11T03:22:32;-5.30;99.90
5041;DHT22;2539;52.568;13.364;2024-01-11T03:24:58;-5.30;99.90
5041;DHT22;2539;52.568;13.364;2024-01-11T03:27:24;-5.40;99.90
5041;DHT22;2539;52.568;13.364;2024-01-11T03:29:50;-5.40;99.90
5041;DHT22;2539;52.568;13.364;2024-01-11T03:32:17;-5.30;99.90
5041;DHT22;2539;52.568;13.364;2024-01-11T03:34:43;-5.40;99.90
5041;DHT22;2539;52.568;13.364;2024-01-11T03:37:09;-5.50;99.90
5041;DHT22;2539;52.568;13.364;2024-01-11T03:39:35;-5.30;99.90
5041;DHT22;2539;52.568;13.364;2024-01-11T03:42:02;-5.30;99.90
5041;DHT22;2539;52.568;13.364;2024-01-11T03:44:30;-5.20;99.90
5041;DHT22;2539;52.568;13.364;2024-01-11T03:46:57;-5.20;99.90
5041;DHT22;2539;52.568;13.364;2024-01-11T03:49:23;-5.20;99.90
5041;DHT22;2539;52.568;13.364;2024-01-11T03:51:50;-5.10;99.90
5041;DHT22;2539;52.568;13.364;2024-01-11T03:54:16;-5.00;99.90
5041;DHT22;2539;52.568;13.364;2024-01-11T03:56:42;-5.00;99.90
5041;DHT22;2539;52.568;13.364;2024-01-11T03:59:10;-4.90;99.90
5041;DHT22;2539;52.568;13.364;2024-01-11T04:01:43;-4.80;99.90
5041;DHT22;2539;52.568;13.364;2024-01-11T04:04:10;-4.80;99.90
5041;DHT22;2539;52.568;13.364;2024-01-11T04:06:36;-4.70;99.90
5041;DHT22;2539;52.568;13.364;2024-01-11T04:09:03;-4.80;99.90
5041;DHT22;2539;52.568;13.364;2024-01-11T04:11:30;-4.70;99.90
5041;DHT22;2539;52.568;13.364;2024-01-11T04:13:56;-4.70;99.90
5041;DHT22;2539;52.568;13.364;2024-01-11T04:16:22;-4.70;99.90
5041;DHT22;2539;52.568;13.364;2024-01-11T04:18:49;-4.70;99.90
5041;DHT22;2539;52.568;13.364;2024-01-11T04:21:41;-4.60;99.90
5041;DHT22;2539;52.568;13.364;2024-01-11T04:24:07;-4.70;99.90
5041;DHT22;2539;52.568;13.364;2024-01-11T04:26:34;-4.80;99.90
5041;DHT22;2539;52.568;13.364;2024-01-11T04:29:00;-4.80;99.90
5041;DHT22;2539;52.568;13.364;2024-01-11T04:31:27;-4.90;99.90
5041;DHT22;2539;52.568;13.364;2024-01-11T04:33:53;-4.80;99.90
5041;DHT22;2539;52.568;13.364;2024-01-11T04:36:19;-4.80;99.90
5041;DHT22;2539;52.568;13.364;2024-01-11T04:38:46;-4.70;99.90
5041;DHT22;2539;52.568;13.364;2024-01-11T04:41:13;-4.70;99.90
5041;DHT22;2539;52.568;13.364;2024-01-11T04:43:41;-4.70;99.90
5041;DHT22;2539;52.568;13.364;2024-01-11T04:46:21;-4.60;99.90
5041;DHT22;2539;52.568;13.364;2024-01-11T04:48:48;-4.50;99.90
5041;DHT22;2539;52.568;13.364;2024-01-11T04:51:16;-4.50;99.90
5041;DHT22;2539;52.568;13.364;2024-01-11T04:53:43;-4.40;99.90
5041;DHT22;2539;52.568;13.364;2024-01-11T04:56:11;-4.30;99.90
5041;DHT22;2539;52.568;13.364;2024-01-11T04:58:40;-4.30;99.90
5041;DHT22;2539;52.568;13.364;2024-01-11T05:01:06;-4.30;99.90
5041;DHT22;2539;52.568;13.364;2024-01-11T05:03:33;-4.20;99.90
5041;DHT22;2539;52.568;13.364;2024-01-11T05:06:00;-4.10;99.90
5041;DHT22;2539;52.568;13.364;2024-01-11T05:08:26;-4.10;99.90
5041;DHT22;2539;52.568;13.364;2024-01-11T05:10:53;-4.10;99.90
5041;DHT22;2539;52.568;13.364;2024-01-11T05:13:20;-4.20;99.90
5041;DHT22;2539;52.568;13.364;2024-01-11T05:15:46;-4.30;99.90
5041;DHT22;2539;52.568;13.364;2024-01-11T05:18:13;-4.20;99.90
5041;DHT22;2539;52.568;13.364;2024-01-11T05:20:40;-4.20;99.90
5041;DHT22;2539;52.568;13.364;2024-01-11T05:23:06;-4.20;99.90
5041;DHT22;2539;52.568;13.364;2024-01-11T05:25:32;-4.30;99.90
5041;DHT22;2539;52.568;13.364;2024-01-11T05:28:02;-4.20;99.90
5041;DHT22;2539;52.568;13.364;2024-01-11T05:30:30;-4.20;99.90
5041;DHT22;2539;52.568;13.364;2024-01-11T05:32:56;-4.10;99.90
5041;DHT22;2539;52.568;13.364;2024-01-11T05:35:23;-4.10;99.90
5041;DHT22;2539;52.568;13.364;2024-01-11T05:37:50;-4.00;99.90
5041;DHT22;2539;52.568;13.364;2024-01-11T05:40:17;-3.90;99.90
5041;DHT22;2539;52.568;13.364;2024-01-11T05:42:43;-3.80;99.90
5041;DHT22;2539;52.568;13.364;2024-01-11T05:45:09;-3.80;99.90
5041;DHT22;2539;52.568;13.364;2024-01-11T05:47:36;-3.80;99.90
5041;DHT22;2539;52.568;13.364;2024-01-11T05:50:04;-3.70;99.90
5041;DHT22;2539;52.568;13.364;2024-01-11T05:52:31;-3.70;99.90
5041;DHT22;2539;52.568;13.364;2024-01-11T05:54:57;-3.70;99.90
5041;DHT22;2539;52.568;13.364;2024-01-11T05:57:23;-3.70;99.90
5041;DHT22;2539;52.568;13.364;2024-01-11T05:59:48;-3.70;99.90
5041;DHT22;2539;52.568;13.364;2024-01-11T06:02:14;-3.70;99.90
5041;DHT22;2539;52.568;13.364;2024-01-11T06:04:41;-3.70;99.90
5041;DHT22;2539;52.568;13.364;2024-01-11T06:07:07;-3.80;99.90
5041;DHT22;2539;52.568;13.364;2024-01-11T06:09:33;-3.70;99.90
5041;DHT22;2539;52.568;13.364;2024-01-11T06:12:00;-3.70;99.90
5041;DHT22;2539;52.568;13.364;2024-01-11T06:14:27;-3.60;99.90
5041;DHT22;2539;52.568;13.364;2024-01-11T06:16:53;-3.60;99.90
5041;DHT22;2539;52.568;13.364;2024-01-11T06:19:19;-3.50;99.90
5041;DHT22;2539;52.568;13.364;2024-01-11T06:21:45;-3.50;99.90
5041;DHT22;2539;52.568;13.364;2024-01-11T06:24:13;-3.50;99.90
5041;DHT22;2539;52.568;13.364;2024-01-11T06:26:39;-3.50;99.90
5041;DHT22;2539;52.568;13.364;2024-01-11T06:29:05;-3.50;99.90
5041;DHT22;2539;52.568;13.364;2024-01-11T06:31:31;-3.40;99.90
5041;DHT22;2539;52.568;13.364;2024-01-11T06:33:58;-3.40;99.90
5041;DHT22;2539;52.568;13.364;2024-01-11T06:36:24;-3.30;99.90
5041;DHT22;2539;52.568;13.364;2024-01-11T06:38:50;-3.30;99.90
5041;DHT22;2539;52.568;13.364;2024-01-11T06:41:16;-3.30;99.90
5041;DHT22;2539;52.568;13.364;2024-01-11T06:43:43;-3.20;99.90
5041;DHT22;2539;52.568;13.364;2024-01-11T06:46:09;-3.20;99.90
5041;DHT22;2539;52.568;13.364;2024-01-11T06:48:36;-3.30;99.90
5041;DHT22;2539;52.568;13.364;2024-01-11T06:51:04;-3.30;99.90
5041;DHT22;2539;52.568;13.364;2024-01-11T06:53:30;-3.10;99.90
5041;DHT22;2539;52.568;13.364;2024-01-11T06:55:56;-3.10;99.90
5041;DHT22;2539;52.568;13.364;2024-01-11T06:58:23;-3.10;99.90
5041;DHT22;2539;52.568;13.364;2024-01-11T07:00:49;-3.00;99.90
5041;DHT22;2539;52.568;13.364;2024-01-11T07:03:17;-3.00;99.90
5041;DHT22;2539;52.568;13.364;2024-01-11T07:05:43;-3.00;99.90
5041;DHT22;2539;52.568;13.364;2024-01-11T07:08:09;-2.90;99.90
5041;DHT22;2539;52.568;13.364;2024-01-11T07:10:36;-2.90;99.90
5041;DHT22;2539;52.568;13.364;2024-01-11T07:13:03;-2.90;99.90
5041;DHT22;2539;52.568;13.364;2024-01-11T07:15:30;-3.00;99.90
5041;DHT22;2539;52.568;13.364;2024-01-11T07:17:56;-3.00;99.90
5041;DHT22;2539;52.568;13.364;2024-01-11T07:20:22;-3.00;99.90
5041;DHT22;2539;52.568;13.364;2024-01-11T07:22:49;-3.00;99.90
5041;DHT22;2539;52.568;13.364;2024-01-11T07:25:15;-2.90;99.90
5041;DHT22;2539;52.568;13.364;2024-01-11T07:27:41;-2.90;99.90
5041;DHT22;2539;52.568;13.364;2024-01-11T07:30:09;-2.90;99.90
5041;DHT22;2539;52.568;13.364;2024-01-11T07:32:35;-2.80;99.90
5041;DHT22;2539;52.568;13.364;2024-01-11T07:35:01;-2.90;99.90
5041;DHT22;2539;52.568;13.364;2024-01-11T07:37:28;-2.80;99.90
5041;DHT22;2539;52.568;13.364;2024-01-11T07:39:54;-2.80;99.90
5041;DHT22;2539;52.568;13.364;2024-01-11T07:42:21;-2.80;99.90
5041;DHT22;2539;52.568;13.364;2024-01-11T07:44:47;-2.70;99.90
5041;DHT22;2539;52.568;13.364;2024-01-11T07:47:13;-2.70;99.90
5041;DHT22;2539;52.568;13.364;2024-01-11T07:49:39;-2.70;99.90
5041;DHT22;2539;52.568;13.364;2024-01-11T07:52:06;-2.60;99.90
5041;DHT22;2539;52.568;13.364;2024-01-11T07:54:32;-2.60;99.90
5041;DHT22;2539;52.568;13.364;2024-01-11T07:56:59;-2.50;99.90
5041;DHT22;2539;52.568;13.364;2024-01-11T07:59:25;-2.50;99.90
5041;DHT22;2539;52.568;13.364;2024-01-11T08:01:52;-2.40;99.90
5041;DHT22;2539;52.568;13.364;2024-01-11T08:04:19;-2.40;99.90
5041;DHT22;2539;52.568;13.364;2024-01-11T08:06:46;-2.30;99.90
5041;DHT22;2539;52.568;13.364;2024-01-11T08:09:13;-2.40;99.90
5041;DHT22;2539;52.568;13.364;2024-01-11T08:11:39;-2.40;99.90
5041;DHT22;2539;52.568;13.364;2024-01-11T08:14:07;-2.40;99.90
5041;DHT22;2539;52.568;13.364;2024-01-11T08:16:33;-2.30;99.90
5041;DHT22;2539;52.568;13.364;2024-01-11T08:19:00;-2.30;99.90
5041;DHT22;2539;52.568;13.364;2024-01-11T08:21:26;-2.40;99.90
5041;DHT22;2539;52.568;13.364;2024-01-11T08:23:54;-2.30;99.90
5041;DHT22;2539;52.568;13.364;2024-01-11T08:26:21;-2.30;99.90
5041;DHT22;2539;52.568;13.364;2024-01-11T08:28:48;-2.30;99.90
5041;DHT22;2539;52.568;13.364;2024-01-11T08:31:14;-2.20;99.90
5041;DHT22;2539;52.568;13.364;2024-01-11T08:33:40;-2.20;99.90
5041;DHT22;2539;52.568;13.364;2024-01-11T08:36:07;-2.20;99.90
5041;DHT22;2539;52.568;13.364;2024-01-11T08:38:34;-2.20;99.90
5041;DHT22;2539;52.568;13.364;2024-01-11T08:41:01;-2.10;99.90
5041;DHT22;2539;52.568;13.364;2024-01-11T08:43:29;-2.10;99.90
5041;DHT22;2539;52.568;13.364;2024-01-11T08:45:55;-2.10;99.90
5041;DHT22;2539;52.568;13.364;2024-01-11T08:48:22;-2.00;99.90
5041;DHT22;2539;52.568;13.364;2024-01-11T08:50:48;-2.00;99.90
5041;DHT22;2539;52.568;13.364;2024-01-11T08:53:14;-2.10;99.90
5041;DHT22;2539;52.568;13.364;2024-01-11T08:55:42;-2.00;99.90
5041;DHT22;2539;52.568;13.364;2024-01-11T08:58:08;-1.80;99.90
5041;DHT22;2539;52.568;13.364;2024-01-11T09:00:35;-1.80;99.90
5041;DHT22;2539;52.568;13.364;2024-01-11T09:03:01;-1.60;99.90
5041;DHT22;2539;52.568;13.364;2024-01-11T09:05:27;-1.40;99.90
5041;DHT22;2539;52.568;13.364;2024-01-11T09:07:54;-1.30;99.90
5041;DHT22;2539;52.568;13.364;2024-01-11T09:10:20;-1.20;99.90
5041;DHT22;2539;52.568;13.364;2024-01-11T09:12:46;-1.10;99.90
5041;DHT22;2539;52.568;13.364;2024-01-11T09:15:13;-1.20;99.90
5041;DHT22;2539;52.568;13.364;2024-01-11T09:17:39;-1.20;99.90
5041;DHT22;2539;52.568;13.364;2024-01-11T09:20:06;-1.10;99.90
5041;DHT22;2539;52.568;13.364;2024-01-11T09:22:32;-1.20;99.90
5041;DHT22;2539;52.568;13.364;2024-01-11T09:24:58;-1.30;99.90
5041;DHT22;2539;52.568;13.364;2024-01-11T09:27:25;-1.10;99.90
5041;DHT22;2539;52.568;13.364;2024-01-11T09:29:51;-1.20;99.90
5041;DHT22;2539;52.568;13.364;2024-01-11T09:32:18;-1.40;99.90
5041;DHT22;2539;52.568;13.364;2024-01-11T09:34:45;-1.30;99.90
5041;DHT22;2539;52.568;13.364;2024-01-11T09:37:11;-1.20;99.90
5041;DHT22;2539;52.568;13.364;2024-01-11T09:39:36;-1.20;99.90
5041;DHT22;2539;52.568;13.364;2024-01-11T09:42:08;-1.10;99.90
5041;DHT22;2539;52.568;13.364;2024-01-11T09:44:38;-1.10;99.90
5041;DHT22;2539;52.568;13.364;2024-01-11T09:47:08;-1.30;99.90
5041;DHT22;2539;52.568;13.364;2024-01-11T09:49:36;-1.40;99.90
5041;DHT22;2539;52.568;13.364;2024-01-11T09:52:04;-1.50;99.90
5041;DHT22;2539;52.568;13.364;2024-01-11T09:54:31;-1.40;99.90
5041;DHT22;2539;52.568;13.364;2024-01-11T09:56:59;-1.40;99.90
5041;DHT22;2539;52.568;13.364;2024-01-11T09:59:25;-1.40;99.90
5041;DHT22;2539;52.568;13.364;2024-01-11T10:01:52;-1.40;99.90
5041;DHT22;2539;52.568;13.364;2024-01-11T10:04:21;-1.50;99.90
5041;DHT22;2539;52.568;13.364;2024-01-11T10:06:48;-1.40;99.90
5041;DHT22;2539;52.568;13.364;2024-01-11T10:09:17;-1.30;99.90
5041;DHT22;2539;52.568;13.364;2024-01-11T10:11:43;-1.40;99.90
5041;DHT22;2539;52.568;13.364;2024-01-11T10:14:12;-1.40;99.90
5041;DHT22;2539;52.568;13.364;2024-01-11T10:16:38;-1.20;99.90
5041;DHT22;2539;52.568;13.364;2024-01-11T10:19:05;-1.30;99.90
5041;DHT22;2539;52.568;13.364;2024-01-11T10:21:31;-1.20;99.90
5041;DHT22;2539;52.568;13.364;2024-01-11T10:23:58;-1.20;99.90
5041;DHT22;2539;52.568;13.364;2024-01-11T10:26:25;-1.20;99.90
5041;DHT22;2539;52.568;13.364;2024-01-11T10:28:51;-1.10;99.90
5041;DHT22;2539;52.568;13.364;2024-01-11T10:31:18;-1.20;99.90
5041;DHT22;2539;52.568;13.364;2024-01-11T10:33:45;-1.20;99.90
5041;DHT22;2539;52.568;13.364;2024-01-11T10:36:11;-1.20;99.90
5041;DHT22;2539;52.568;13.364;2024-01-11T10:38:39;-1.20;99.90
5041;DHT22;2539;52.568;13.364;2024-01-11T10:41:06;-1.20;99.90
5041;DHT22;2539;52.568;13.364;2024-01-11T10:43:36;-1.20;99.90
5041;DHT22;2539;52.568;13.364;2024-01-11T10:46:04;-1.20;99.90
5041;DHT22;2539;52.568;13.364;2024-01-11T10:48:37;-1.00;99.90
5041;DHT22;2539;52.568;13.364;2024-01-11T10:51:07;-1.10;99.90
5041;DHT22;2539;52.568;13.364;2024-01-11T10:53:44;-1.10;99.90
5041;DHT22;2539;52.568;13.364;2024-01-11T10:56:14;-0.90;99.90
5041;DHT22;2539;52.568;13.364;2024-01-11T10:58:44;-0.90;99.90
5041;DHT22;2539;52.568;13.364;2024-01-11T11:01:11;-0.80;99.90
5041;DHT22;2539;52.568;13.364;2024-01-11T11:03:39;-0.90;99.90
5041;DHT22;2539;52.568;13.364;2024-01-11T11:06:07;-1.00;99.90
5041;DHT22;2539;52.568;13.364;2024-01-11T11:08:34;-1.00;99.90
5041;DHT22;2539;52.568;13.364;2024-01-11T11:11:02;-1.10;99.90
5041;DHT22;2539;52.568;13.364;2024-01-11T11:13:31;-1.00;99.90
5041;DHT22;2539;52.568;13.364;2024-01-11T11:15:58;-1.00;99.90
5041;DHT22;2539;52.568;13.364;2024-01-11T11:18:25;-0.90;99.90
5041;DHT22;2539;52.568;13.364;2024-01-11T11:20:51;-1.00;99.90
5041;DHT22;2539;52.568;13.364;2024-01-11T11:23:18;-1.00;99.90
5041;DHT22;2539;52.568;13.364;2024-01-11T11:25:46;-1.00;99.90
5041;DHT22;2539;52.568;13.364;2024-01-11T11:28:14;-1.10;99.90
5041;DHT22;2539;52.568;13.364;2024-01-11T11:30:42;-1.00;99.90
5041;DHT22;2539;52.568;13.364;2024-01-11T11:33:17;-1.00;99.90
5041;DHT22;2539;52.568;13.364;2024-01-11T11:35:48;-1.00;99.90
5041;DHT22;2539;52.568;13.364;2024-01-11T11:38:19;-1.00;99.90
5041;DHT22;2539;52.568;13.364;2024-01-11T11:40:47;-1.00;99.90
5041;DHT22;2539;52.568;13.364;2024-01-11T11:43:18;-0.90;99.90
5041;DHT22;2539;52.568;13.364;2024-01-11T11:45:49;-1.00;99.90
5041;DHT22;2539;52.568;13.364;2024-01-11T11:51:12;-0.90;99.90
5041;DHT22;2539;52.568;13.364;2024-01-11T11:53:39;-0.80;99.90
5041;DHT22;2539;52.568;13.364;2024-01-11T11:56:07;-0.90;99.90
5041;DHT22;2539;52.568;13.364;2024-01-11T11:58:35;-0.70;99.90
5041;DHT22;2539;52.568;13.364;2024-01-11T12:01:03;-0.70;99.90
5041;DHT22;2539;52.568;13.364;2024-01-11T12:03:30;-0.70;99.90
5041;DHT22;2539;52.568;13.364;2024-01-11T12:06:04;-0.70;99.90
5041;DHT22;2539;52.568;13.364;2024-01-11T12:08:31;-0.70;99.90
5041;DHT22;2539;52.568;13.364;2024-01-11T12:10:58;-0.60;99.90
5041;DHT22;2539;52.568;13.364;2024-01-11T12:13:25;-0.60;99.90
5041;DHT22;2539;52.568;13.364;2024-01-11T12:15:52;-0.50;99.90
5041;DHT22;2539;52.568;13.364;2024-01-11T12:18:18;-0.50;99.90
5041;DHT22;2539;52.568;13.364;2024-01-11T12:20:45;-0.60;99.90
5041;DHT22;2539;52.568;13.364;2024-01-11T12:23:12;-0.50;99.90
5041;DHT22;2539;52.568;13.364;2024-01-11T12:25:40;-0.40;99.90
5041;DHT22;2539;52.568;13.364;2024-01-11T12:28:07;-0.40;99.90
5041;DHT22;2539;52.568;13.364;2024-01-11T12:30:33;-0.50;99.90
5041;DHT22;2539;52.568;13.364;2024-01-11T12:33:00;-0.40;99.90
5041;DHT22;2539;52.568;13.364;2024-01-11T12:35:28;-0.40;99.90
5041;DHT22;2539;52.568;13.364;2024-01-11T12:37:55;-0.50;99.90
5041;DHT22;2539;52.568;13.364;2024-01-11T12:40:22;-0.40;99.90
5041;DHT22;2539;52.568;13.364;2024-01-11T12:42:49;-0.40;99.90
5041;DHT22;2539;52.568;13.364;2024-01-11T12:45:16;-0.40;99.90
5041;DHT22;2539;52.568;13.364;2024-01-11T12:47:43;-0.30;99.90
5041;DHT22;2539;52.568;13.364;2024-01-11T12:50:11;-0.20;99.90
5041;DHT22;2539;52.568;13.364;2024-01-11T12:52:38;-0.20;99.90
5041;DHT22;2539;52.568;13.364;2024-01-11T12:55:13;0.00;99.90
5041;DHT22;2539;52.568;13.364;2024-01-11T12:57:44;-0.10;99.90
5041;DHT22;2539;52.568;13.364;2024-01-11T13:00:11;-0.10;99.90
5041;DHT22;2539;52.568;13.364;2024-01-11T13:02:37;0.00;99.90
5041;DHT22;2539;52.568;13.364;2024-01-11T13:05:04;0.00;99.90
5041;DHT22;2539;52.568;13.364;2024-01-11T13:07:31;-0.10;99.90
5041;DHT22;2539;52.568;13.364;2024-01-11T13:09:58;-0.10;99.90
5041;DHT22;2539;52.568;13.364;2024-01-11T13:12:24;-0.10;99.90
5041;DHT22;2539;52.568;13.364;2024-01-11T13:14:50;-0.20;99.90
5041;DHT22;2539;52.568;13.364;2024-01-11T13:17:19;-0.20;99.90
5041;DHT22;2539;52.568;13.364;2024-01-11T13:19:46;-0.30;99.90
5041;DHT22;2539;52.568;13.364;2024-01-11T13:22:12;-0.20;99.90
5041;DHT22;2539;52.568;13.364;2024-01-11T13:24:39;-0.30;99.90
5041;DHT22;2539;52.568;13.364;2024-01-11T13:27:05;-0.30;99.90
5041;DHT22;2539;52.568;13.364;2024-01-11T13:29:32;-0.30;99.90
5041;DHT22;2539;52.568;13.364;2024-01-11T13:31:58;-0.30;99.90
5041;DHT22;2539;52.568;13.364;2024-01-11T13:34:24;-0.20;99.90
5041;DHT22;2539;52.568;13.364;2024-01-11T13:36:51;-0.20;99.90
5041;DHT22;2539;52.568;13.364;2024-01-11T13:39:17;-0.20;99.90
5041;DHT22;2539;52.568;13.364;2024-01-11T13:41:44;-0.10;99.90
5041;DHT22;2539;52.568;13.364;2024-01-11T13:44:10;-0.10;99.90
5041;DHT22;2539;52.568;13.364;2024-01-11T13:46:37;-0.10;99.90
5041;DHT22;2539;52.568;13.364;2024-01-11T13:49:04;-0.30;99.90
5041;DHT22;2539;52.568;13.364;2024-01-11T13:51:30;-0.30;99.90
5041;DHT22;2539;52.568;13.364;2024-01-11T13:53:58;-0.40;99.90
5041;DHT22;2539;52.568;13.364;2024-01-11T13:56:29;-0.40;99.90
5041;DHT22;2539;52.568;13.364;2024-01-11T13:58:54;-0.40;99.90
5041;DHT22;2539;52.568;13.364;2024-01-11T14:01:20;-0.30;99.90
5041;DHT22;2539;52.568;13.364;2024-01-11T14:03:46;-0.30;99.90
5041;DHT22;2539;52.568;13.364;2024-01-11T14:06:11;-0.40;99.90
5041;DHT22;2539;52.568;13.364;2024-01-11T14:08:38;-0.50;99.90
5041;DHT22;2539;52.568;13.364;2024-01-11T14:11:05;-0.40;99.90
5041;DHT22;2539;52.568;13.364;2024-01-11T14:13:31;-0.30;99.90
5041;DHT22;2539;52.568;13.364;2024-01-11T14:15:57;-0.30;99.90
5041;DHT22;2539;52.568;13.364;2024-01-11T14:18:24;-0.30;99.90
5041;DHT22;2539;52.568;13.364;2024-01-11T14:20:50;-0.30;99.90
5041;DHT22;2539;52.568;13.364;2024-01-11T14:23:16;-0.40;99.90
5041;DHT22;2539;52.568;13.364;2024-01-11T14:25:43;-0.30;99.90
5041;DHT22;2539;52.568;13.364;2024-01-11T14:28:09;-0.30;99.90
5041;DHT22;2539;52.568;13.364;2024-01-11T14:30:35;-0.30;99.90
5041;DHT22;2539;52.568;13.364;2024-01-11T14:33:02;-0.40;99.90
5041;DHT22;2539;52.568;13.364;2024-01-11T14:35:29;-0.40;99.90
5041;DHT22;2539;52.568;13.364;2024-01-11T14:37:55;-0.50;99.90
5041;DHT22;2539;52.568;13.364;2024-01-11T14:40:21;-0.40;99.90
5041;DHT22;2539;52.568;13.364;2024-01-11T14:42:48;-0.50;99.90
5041;DHT22;2539;52.568;13.364;2024-01-11T14:45:14;-0.40;99.90
5041;DHT22;2539;52.568;13.364;2024-01-11T14:47:39;-0.40;99.90
5041;DHT22;2539;52.568;13.364;2024-01-11T14:50:06;-0.50;99.90
5041;DHT22;2539;52.568;13.364;2024-01-11T14:52:35;-0.50;99.90
5041;DHT22;2539;52.568;13.364;2024-01-11T14:55:01;-0.50;99.90
5041;DHT22;2539;52.568;13.364;2024-01-11T14:57:29;-0.50;99.90
5041;DHT22;2539;52.568;13.364;2024-01-11T14:59:55;-0.50;99.90
5041;DHT22;2539;52.568;13.364;2024-01-11T15:02:22;-0.50;99.90
5041;DHT22;2539;52.568;13.364;2024-01-11T15:04:49;-0.50;99.90
5041;DHT22;2539;52.568;13.364;2024-01-11T15:07:15;-0.40;99.90
5041;DHT22;2539;52.568;13.364;2024-01-11T15:09:42;-0.50;99.90
5041;DHT22;2539;52.568;13.364;2024-01-11T15:12:08;-0.50;99.90
5041;DHT22;2539;52.568;13.364;2024-01-11T15:14:35;-0.50;99.90
5041;DHT22;2539;52.568;13.364;2024-01-11T15:17:02;-0.40;99.90
5041;DHT22;2539;52.568;13.364;2024-01-11T15:19:28;-0.50;99.90
5041;DHT22;2539;52.568;13.364;2024-01-11T15:21:54;-0.50;99.90
5041;DHT22;2539;52.568;13.364;2024-01-11T15:24:20;-0.40;99.90
5041;DHT22;2539;52.568;13.364;2024-01-11T15:26:47;-0.50;99.90
5041;DHT22;2539;52.568;13.364;2024-01-11T15:29:14;-0.40;99.90
5041;DHT22;2539;52.568;13.364;2024-01-11T15:31:41;-0.30;99.90
5041;DHT22;2539;52.568;13.364;2024-01-11T15:34:11;-0.30;99.90
5041;DHT22;2539;52.568;13.364;2024-01-11T15:36:38;-0.20;99.90
5041;DHT22;2539;52.568;13.364;2024-01-11T15:39:06;-0.30;99.90
5041;DHT22;2539;52.568;13.364;2024-01-11T15:41:33;-0.20;99.90
5041;DHT22;2539;52.568;13.364;2024-01-11T15:44:00;-0.30;99.90
5041;DHT22;2539;52.568;13.364;2024-01-11T15:46:26;-0.30;99.90
5041;DHT22;2539;52.568;13.364;2024-01-11T15:48:52;-0.10;99.90